Time;durP1;ratioP1;P1;durP2;ratioP2;P2;SDS_P1;SDS_P2;PMS_P1;PMS_P2;Temp;Humidity;BMP_temperature;BMP_pressure;BME280_temperature;BME280_humidity;BME280_pressure;Samples;Min_cycle;Max_cycle;Signal;HPM_P1;HPM_P2
2023/05/07 00:00:22;;;;;;;31.77;28.90;;;;;;;7.73;100.00;102247.13;5021956;28;20446;-42
2023/05/07 00:02:51;;;;;;;33.20;29.77;;;;;;;7.76;100.00;102247.66;5024923;28;20456;-44
2023/05/07 00:05:20;;;;;;;32.83;29.90;;;;;;;7.74;100.00;102252.28;5019938;28;20923;-41
2023/05/07 00:07:48;;;;;;;31.50;28.70;;;;;;;7.72;100.00;102245.44;5021740;28;20934;-42
2023/05/07 00:10:16;;;;;;;30.57;27.97;;;;;;;7.75;100.00;102245.16;5017763;28;20501;-43
2023/05/07 00:12:43;;;;;;;33.87;30.40;;;;;;;7.75;100.00;102255.78;5025158;28;20468;-40
2023/05/07 00:15:11;;;;;;;32.57;29.73;;;;;;;7.75;100.00;102255.78;5022236;28;20469;-44
2023/05/07 00:17:39;;;;;;;32.33;29.13;;;;;;;7.76;100.00;102254.81;5015371;28;20436;-42
2023/05/07 00:20:09;;;;;;;34.13;29.87;;;;;;;7.75;100.00;102259.28;5020887;28;20429;-43
2023/05/07 00:22:37;;;;;;;32.87;29.80;;;;;;;7.76;100.00;102262.78;5023200;28;20736;-43
2023/05/07 00:25:06;;;;;;;32.70;29.70;;;;;;;7.80;100.00;102261.50;5022614;28;20457;-44
2023/05/07 00:27:34;;;;;;;34.03;30.57;;;;;;;7.77;100.00;102259.97;5018094;28;20437;-45
2023/05/07 00:30:01;;;;;;;34.57;29.73;;;;;;;7.82;100.00;102263.03;5024065;28;20439;-40
2023/05/07 00:32:29;;;;;;;32.57;29.57;;;;;;;7.75;100.00;102259.28;5022262;28;20452;-43
2023/05/07 00:34:57;;;;;;;34.03;30.90;;;;;;;7.77;100.00;102254.66;5027079;28;20503;-42
2023/05/07 00:37:26;;;;;;;34.03;29.90;;;;;;;7.76;100.00;102255.63;5022473;28;20991;-41
2023/05/07 00:39:54;;;;;;;32.60;29.80;;;;;;;7.76;100.00;102252.16;5028950;28;20515;-42
2023/05/07 00:42:21;;;;;;;35.57;32.10;;;;;;;7.72;100.00;102251.59;5028024;28;21202;-41
2023/05/07 00:44:49;;;;;;;36.70;32.77;;;;;;;7.70;100.00;102244.75;5032884;28;20487;-44
2023/05/07 00:47:17;;;;;;;36.80;32.90;;;;;;;7.67;100.00;102248.53;5021411;28;20437;-40
2023/05/07 00:49:45;;;;;;;35.47;31.67;;;;;;;7.74;100.00;102249.63;5021477;28;20432;-42
2023/05/07 00:52:16;;;;;;;36.13;32.50;;;;;;;7.76;100.00;102244.19;5029004;28;20460;-47
2023/05/07 00:54:45;;;;;;;36.93;33.23;;;;;;;7.82;100.00;102251.59;5011573;28;20464;-41
2023/05/07 00:57:13;;;;;;;37.83;32.80;;;;;;;7.80;100.00;102235.78;5017942;28;20433;-40
2023/05/07 00:59:42;;;;;;;39.57;31.80;;;;;;;7.84;100.00;102236.34;5013855;28;20434;-43
2023/05/07 01:02:10;;;;;;;36.77;33.33;;;;;;;7.86;100.00;102244.16;5019484;28;20466;-44
2023/05/07 01:04:38;;;;;;;35.63;32.23;;;;;;;7.78;100.00;102242.22;5025113;28;20528;-40
2023/05/07 01:07:06;;;;;;;35.63;32.13;;;;;;;7.82;100.00;102240.97;5018624;28;20436;-40
2023/05/07 01:09:35;;;;;;;35.00;31.57;;;;;;;7.85;100.00;102232.72;5016770;28;20503;-44
2023/05/07 01:12:05;;;;;;;38.47;31.30;;;;;;;7.89;100.00;102239.38;5023957;28;20449;-41
2023/05/07 01:14:34;;;;;;;35.90;31.30;;;;;;;7.88;100.00;102226.28;5012911;28;20537;-45
2023/05/07 01:17:01;;;;;;;35.87;32.50;;;;;;;7.91;100.00;102228.63;5026321;28;20442;-41
2023/05/07 01:19:31;;;;;;;33.23;30.23;;;;;;;7.90;100.00;102240.22;5023287;28;20433;-42
2023/05/07 01:22:04;;;;;;;35.47;31.50;;;;;;;7.92;100.00;102239.09;5026390;28;20491;-44
2023/05/07 01:24:34;;;;;;;37.90;33.40;;;;;;;7.94;100.00;102231.84;5021340;28;20506;-43
2023/05/07 01:27:02;;;;;;;35.20;32.00;;;;;;;7.99;100.00;102231.41;5015523;28;20432;-41
2023/05/07 01:29:30;;;;;;;35.97;32.47;;;;;;;7.96;100.00;102235.19;5019256;28;20424;-47
2023/05/07 01:32:00;;;;;;;34.43;31.33;;;;;;;7.99;100.00;102240.22;5012972;28;20459;-42
2023/05/07 01:34:32;;;;;;;34.10;30.90;;;;;;;8.01;100.00;102240.06;5027346;28;20482;-41
2023/05/07 01:37:01;;;;;;;36.43;33.13;;;;;;;8.03;100.00;102232.81;5006190;28;20469;-44
2023/05/07 01:39:30;;;;;;;34.30;30.60;;;;;;;8.06;100.00;102236.03;5016511;28;20846;-43
2023/05/07 01:42:00;;;;;;;34.07;31.13;;;;;;;8.06;100.00;102229.88;5020236;28;20461;-44
2023/05/07 01:44:29;;;;;;;33.17;29.97;;;;;;;8.06;100.00;102229.88;5025131;28;20440;-44
2023/05/07 01:46:58;;;;;;;32.63;30.10;;;;;;;8.05;100.00;102225.53;5027614;28;21003;-41
2023/05/07 01:49:26;;;;;;;33.07;30.40;;;;;;;8.08;100.00;102226.06;5021995;28;20439;-41
2023/05/07 01:51:53;;;;;;;32.17;29.57;;;;;;;8.10;100.00;102220.59;5018733;28;20495;-42
2023/05/07 01:54:27;;;;;;;32.83;30.13;;;;;;;8.13;100.00;102228.28;5019448;28;20425;-44
2023/05/07 01:56:57;;;;;;;33.40;30.33;;;;;;;8.17;100.00;102225.22;5020189;28;20476;-44
2023/05/07 01:59:26;;;;;;;32.07;29.33;;;;;;;8.19;100.00;102225.03;5017785;28;20531;-43
2023/05/07 02:01:54;;;;;;;31.90;29.30;;;;;;;8.17;100.00;102227.88;5020901;28;20480;-40
2023/05/07 02:04:23;;;;;;;32.73;30.03;;;;;;;8.17;100.00;102224.38;5021623;28;20434;-44
2023/05/07 02:06:51;;;;;;;34.33;31.37;;;;;;;8.23;100.00;102229.94;5014245;28;20460;-42
2023/05/07 02:09:19;;;;;;;33.00;30.30;;;;;;;8.21;100.00;102231.88;5017239;28;20494;-42
2023/05/07 02:11:46;;;;;;;33.63;30.33;;;;;;;8.22;100.00;102225.59;5023470;28;20452;-41
2023/05/07 02:14:15;;;;;;;32.57;30.23;;;;;;;8.24;100.00;102236.91;5031724;28;20435;-43
2023/05/07 02:16:44;;;;;;;32.63;30.13;;;;;;;8.26;100.00;102228.81;5020523;28;20473;-40
2023/05/07 02:19:11;;;;;;;33.43;30.93;;;;;;;8.26;100.00;102240.28;5026880;28;20926;-42
2023/05/07 02:21:39;;;;;;;35.13;32.07;;;;;;;8.26;100.00;102232.31;5019484;28;20456;-46
2023/05/07 02:24:07;;;;;;;34.23;31.30;;;;;;;8.30;100.00;102236.38;5028352;28;20546;-44
2023/05/07 02:26:35;;;;;;;33.13;30.13;;;;;;;8.32;100.00;102242.41;5022337;28;20461;-40
2023/05/07 02:29:03;;;;;;;34.07;30.87;;;;;;;8.33;100.00;102241.38;5020605;28;20432;-40
2023/05/07 02:31:30;;;;;;;34.60;31.63;;;;;;;8.36;100.00;102240.28;5026233;28;20463;-42
2023/05/07 02:33:59;;;;;;;35.70;32.90;;;;;;;8.33;100.00;102233.41;5020849;28;20547;-40
2023/05/07 02:36:27;;;;;;;34.17;31.37;;;;;;;8.34;100.00;102240.41;5019247;28;20469;-44
2023/05/07 02:38:55;;;;;;;34.83;31.97;;;;;;;8.35;100.00;102233.28;5023727;28;20942;-39
2023/05/07 02:41:23;;;;;;;32.67;30.17;;;;;;;8.34;100.00;102223.63;5025413;28;20502;-40
2023/05/07 02:43:51;;;;;;;30.93;28.77;;;;;;;8.37;100.00;102235.78;5029239;28;20448;-47
2023/05/07 02:46:19;;;;;;;31.70;29.17;;;;;;;8.38;100.00;102245.44;5029509;28;20484;-42
2023/05/07 02:48:46;;;;;;;34.53;31.80;;;;;;;8.38;100.00;102243.63;5026418;28;20434;-40
2023/05/07 02:51:15;;;;;;;33.03;30.33;;;;;;;8.41;100.00;102255.78;5016611;28;20456;-43
2023/05/07 02:53:43;;;;;;;33.80;31.00;;;;;;;8.40;100.00;102259.41;5013175;28;20437;-43
2023/05/07 02:56:11;;;;;;;34.43;31.70;;;;;;;8.36;100.00;102258.91;5022128;28;20479;-42
2023/05/07 02:58:39;;;;;;;33.20;30.07;;;;;;;8.39;100.00;102249.78;5025210;28;20437;-43
2023/05/07 03:01:07;;;;;;;32.80;30.40;;;;;;;8.42;100.00;102245.03;5027750;28;20460;-43
2023/05/07 03:03:36;;;;;;;33.93;31.10;;;;;;;8.45;100.00;102252.72;5024042;28;20520;-42
2023/05/07 03:06:04;;;;;;;32.60;30.30;;;;;;;8.45;100.00;102254.53;5020434;28;20464;-40
2023/05/07 03:08:33;;;;;;;35.37;32.37;;;;;;;8.42;100.00;102238.88;5024968;28;20468;-40
2023/05/07 03:11:01;;;;;;;33.57;30.47;;;;;;;8.42;100.00;102252.16;5018457;28;20470;-43
2023/05/07 03:13:28;;;;;;;33.40;30.60;;;;;;;8.45;100.00;102249.22;5027952;28;20439;-45
2023/05/07 03:15:56;;;;;;;34.47;31.80;;;;;;;8.46;100.00;102241.06;5029402;28;20456;-42
2023/05/07 03:18:24;;;;;;;35.67;32.20;;;;;;;8.45;100.00;102243.88;5027011;28;20436;-43
2023/05/07 03:20:52;;;;;;;32.90;30.43;;;;;;;8.43;100.00;102243.19;5027290;28;20447;-41
2023/05/07 03:23:20;;;;;;;32.67;29.93;;;;;;;8.42;100.00;102237.03;5032859;28;21015;-44
2023/05/07 03:25:52;;;;;;;33.00;30.60;;;;;;;8.44;100.00;102237.72;5022962;28;21043;-43
2023/05/07 03:28:20;;;;;;;32.77;30.33;;;;;;;8.40;100.00;102235.50;5021476;28;20433;-45
2023/05/07 03:30:47;;;;;;;32.17;29.57;;;;;;;8.43;100.00;102232.53;5024581;28;20425;-40
2023/05/07 03:33:15;;;;;;;32.60;30.10;;;;;;;8.38;100.00;102238.31;5025950;28;20440;-42
2023/05/07 03:35:43;;;;;;;33.70;31.03;;;;;;;8.34;100.00;102235.09;5015735;28;20523;-41
2023/05/07 03:38:10;;;;;;;31.60;29.37;;;;;;;8.36;100.00;102242.94;5014866;28;20473;-41
2023/05/07 03:40:38;;;;;;;32.50;29.90;;;;;;;8.30;100.00;102235.56;5018127;28;20424;-47
2023/05/07 03:43:07;;;;;;;31.90;29.60;;;;;;;8.32;100.00;102247.72;5039467;22;20491;-41
2023/05/07 03:45:35;;;;;;;30.07;27.97;;;;;;;8.35;100.00;102243.91;5027824;28;21009;-40
2023/05/07 03:48:03;;;;;;;30.20;28.23;;;;;;;8.34;100.00;102247.56;5031608;28;20523;-40
2023/05/07 03:50:31;;;;;;;32.57;30.27;;;;;;;8.35;100.00;102238.59;5032429;28;20436;-41
2023/05/07 03:52:59;;;;;;;30.13;28.13;;;;;;;8.37;100.00;102244.59;5030067;28;20459;-43
2023/05/07 03:55:27;;;;;;;31.80;29.50;;;;;;;8.34;100.00;102253.72;5018133;28;20479;-42
2023/05/07 03:57:54;;;;;;;31.07;28.90;;;;;;;8.39;100.00;102253.28;5018924;28;20522;-40
2023/05/07 04:00:23;;;;;;;31.33;28.90;;;;;;;8.47;100.00;102248.06;5020001;28;20938;-41
2023/05/07 04:02:51;;;;;;;31.03;28.47;;;;;;;8.49;100.00;102255.88;5026163;28;20446;-41
2023/05/07 04:05:19;;;;;;;32.53;29.83;;;;;;;8.47;100.00;102252.53;5018173;28;20444;-41
2023/05/07 04:07:46;;;;;;;29.53;27.53;;;;;;;8.46;100.00;102257.03;5027041;28;21020;-40
2023/05/07 04:10:14;;;;;;;30.60;28.60;;;;;;;8.50;100.00;102266.38;5024617;28;20434;-41
2023/05/07 04:12:42;;;;;;;31.23;29.07;;;;;;;8.51;100.00;102260.06;5025243;28;20490;-41
2023/05/07 04:15:10;;;;;;;31.93;29.70;;;;;;;8.57;100.00;102254.16;5025932;28;21030;-40
2023/05/07 04:17:39;;;;;;;31.30;29.10;;;;;;;8.58;100.00;102253.19;5019235;28;20476;-42
2023/05/07 04:20:10;;;;;;;31.77;29.27;;;;;;;8.59;100.00;102259.34;5029509;28;20432;-40
2023/05/07 04:22:38;;;;;;;30.93;28.83;;;;;;;8.58;100.00;102257.66;5025816;28;20829;-42
2023/05/07 04:25:07;;;;;;;30.27;28.37;;;;;;;8.59;100.00;102260.19;5017873;28;20433;-42
2023/05/07 04:27:35;;;;;;;31.60;29.43;;;;;;;8.63;100.00;102258.09;5018329;28;20479;-43
2023/05/07 04:30:03;;;;;;;31.37;29.23;;;;;;;8.64;100.00;102270.38;5015310;28;20437;-41
2023/05/07 04:32:31;;;;;;;29.87;27.70;;;;;;;8.59;100.00;102264.66;5016214;28;20791;-40
2023/05/07 04:35:00;;;;;;;31.57;29.30;;;;;;;8.59;100.00;102265.50;5013979;28;20470;-42
2023/05/07 04:37:28;;;;;;;28.77;26.80;;;;;;;8.62;100.00;102272.34;5019045;28;20825;-40
2023/05/07 04:39:55;;;;;;;30.00;28.00;;;;;;;8.60;100.00;102274.34;5020693;28;20440;-40
2023/05/07 04:42:24;;;;;;;29.40;27.50;;;;;;;8.68;100.00;102275.28;5013013;28;20437;-43
2023/05/07 04:44:54;;;;;;;30.70;28.70;;;;;;;8.71;100.00;102274.97;5020674;28;20943;-40
2023/05/07 04:47:22;;;;;;;29.00;27.20;;;;;;;8.75;100.00;102272.88;5022259;28;20464;-43
2023/05/07 04:49:49;;;;;;;30.17;28.07;;;;;;;8.75;100.00;102281.66;5010436;28;20475;-46
2023/05/07 04:52:19;;;;;;;29.50;27.50;;;;;;;8.77;100.00;102276.22;5015945;28;20937;-42
2023/05/07 04:54:47;;;;;;;30.30;28.30;;;;;;;8.77;100.00;102278.88;5015980;28;21032;-41
2023/05/07 04:57:14;;;;;;;30.77;28.67;;;;;;;8.78;100.00;102277.91;5011031;28;20496;-42
2023/05/07 04:59:42;;;;;;;31.50;29.47;;;;;;;8.80;100.00;102271.44;5021734;28;20784;-40
2023/05/07 05:02:11;;;;;;;31.03;29.03;;;;;;;8.81;100.00;102261.63;5029107;28;20531;-46
2023/05/07 05:04:39;;;;;;;29.27;27.47;;;;;;;8.84;100.00;102269.31;5017078;28;21052;-44
2023/05/07 05:07:06;;;;;;;30.13;28.03;;;;;;;8.91;100.00;102267.72;5015497;28;20460;-40
2023/05/07 05:09:35;;;;;;;29.83;27.90;;;;;;;8.99;100.00;102277.63;5011453;28;20467;-41
2023/05/07 05:12:03;;;;;;;29.23;27.43;;;;;;;9.02;100.00;102270.16;5008779;28;20442;-42
2023/05/07 05:14:31;;;;;;;31.17;29.07;;;;;;;9.11;100.00;102277.25;5022666;28;21064;-42
2023/05/07 05:16:59;;;;;;;29.00;27.13;;;;;;;9.14;100.00;102271.63;5016995;28;20511;-40
2023/05/07 05:19:26;;;;;;;30.47;28.37;;;;;;;9.16;100.00;102277.66;5027470;28;20432;-46
2023/05/07 05:21:54;;;;;;;28.83;27.03;;;;;;;9.17;100.00;102278.50;5028418;28;21129;-41
2023/05/07 05:24:22;;;;;;;29.13;27.23;;;;;;;9.17;100.00;102281.97;5027369;28;21078;-43
2023/05/07 05:26:54;;;;;;;29.60;27.67;;;;;;;9.19;100.00;102281.84;5010154;28;20461;-43
2023/05/07 05:29:22;;;;;;;27.83;26.10;;;;;;;9.22;100.00;102279.72;5008846;28;20453;-41
2023/05/07 05:31:49;;;;;;;27.77;26.10;;;;;;;9.24;100.00;102285.72;5008024;28;20437;-41
2023/05/07 05:34:19;;;;;;;28.57;26.77;;;;;;;9.24;100.00;102287.56;5008712;28;20540;-42
2023/05/07 05:36:47;;;;;;;25.37;23.87;;;;;;;9.23;100.00;102289.38;5006965;28;20467;-42
2023/05/07 05:39:15;;;;;;;26.50;25.00;;;;;;;9.26;100.00;102282.91;5005559;28;20469;-40
2023/05/07 05:41:42;;;;;;;27.10;24.93;;;;;;;9.29;100.00;102287.94;5008402;28;20487;-40
2023/05/07 05:44:11;;;;;;;27.30;25.70;;;;;;;9.33;100.00;102290.16;5008995;28;20464;-40
2023/05/07 05:46:39;;;;;;;27.77;25.77;;;;;;;9.30;100.00;102300.25;5007460;28;20472;-41
2023/05/07 05:49:07;;;;;;;27.30;25.80;;;;;;;9.34;100.00;102285.66;5008474;28;20459;-41
2023/05/07 05:51:35;;;;;;;27.33;25.73;;;;;;;9.40;100.00;102293.91;5008074;28;20440;-41
2023/05/07 05:54:04;;;;;;;27.00;25.40;;;;;;;9.39;100.00;102288.72;5008664;28;20535;-44
2023/05/07 05:56:32;;;;;;;27.00;25.37;;;;;;;9.41;100.00;102284.91;5008542;28;20461;-42
2023/05/07 05:58:59;;;;;;;26.70;25.10;;;;;;;9.40;100.00;102293.91;5009541;28;20473;-43
2023/05/07 06:01:28;;;;;;;26.27;24.77;;;;;;;9.51;100.00;102291.97;5008050;28;20528;-40
2023/05/07 06:03:57;;;;;;;27.00;25.40;;;;;;;9.50;100.00;102290.31;5008396;28;20449;-41
2023/05/07 06:06:25;;;;;;;28.20;26.53;;;;;;;9.41;100.00;102292.03;5007501;28;20471;-43
2023/05/07 06:08:53;;;;;;;27.50;25.70;;;;;;;9.56;100.00;102298.53;5007779;28;20433;-40
2023/05/07 06:11:21;;;;;;;27.80;25.87;;;;;;;9.72;100.00;102303.16;5008171;28;20441;-41
2023/05/07 06:13:49;;;;;;;28.27;26.40;;;;;;;9.76;100.00;102308.06;5008067;28;20460;-41
2023/05/07 06:16:16;;;;;;;29.10;27.30;;;;;;;9.77;100.00;102304.38;5009189;28;20464;-40
2023/05/07 06:18:46;;;;;;;29.07;26.80;;;;;;;9.79;100.00;102313.06;5008366;28;20484;-42
2023/05/07 06:21:15;;;;;;;28.10;26.40;;;;;;;9.75;100.00;102306.38;5007721;28;20500;-44
2023/05/07 06:23:42;;;;;;;28.97;27.17;;;;;;;9.88;100.00;102304.16;5008263;28;20520;-41
2023/05/07 06:26:10;;;;;;;28.77;26.90;;;;;;;9.90;100.00;102288.84;5007287;28;20465;-41
2023/05/07 06:28:38;;;;;;;28.73;26.87;;;;;;;9.87;100.00;102298.97;5004630;28;20425;-41
2023/05/07 06:31:16;;;;;;;27.67;25.87;;;;;;;9.95;100.00;102299.03;5006762;28;20798;-43
2023/05/07 06:33:45;;;;;;;26.90;25.40;;;;;;;10.11;100.00;102307.16;5008294;28;20462;-40
2023/05/07 06:36:15;;;;;;;29.00;27.10;;;;;;;10.01;100.00;102301.06;5007191;28;20998;-41
2023/05/07 06:38:42;;;;;;;27.97;25.97;;;;;;;10.12;100.00;102303.50;5007483;28;20469;-40
2023/05/07 06:41:10;;;;;;;28.87;26.97;;;;;;;10.05;100.00;102307.78;5011370;28;20439;-41
2023/05/07 06:43:38;;;;;;;28.20;26.43;;;;;;;10.03;100.00;102305.25;5011669;28;20461;-41
2023/05/07 06:46:06;;;;;;;27.80;25.70;;;;;;;10.01;100.00;102301.06;5011953;28;20695;-40
2023/05/07 06:48:33;;;;;;;27.47;25.73;;;;;;;9.96;100.00;102306.88;5011777;28;20440;-42
2023/05/07 06:51:01;;;;;;;27.70;26.07;;;;;;;9.99;100.00;102308.41;5011944;28;20433;-42
2023/05/07 06:53:30;;;;;;;27.10;25.40;;;;;;;10.05;100.00;102310.44;5011034;28;20978;-41
2023/05/07 06:55:58;;;;;;;27.70;26.00;;;;;;;9.97;100.00;102311.19;5011287;28;21066;-42
2023/05/07 06:58:26;;;;;;;28.37;26.47;;;;;;;9.98;100.00;102307.56;5011459;28;20473;-41
2023/05/07 07:00:53;;;;;;;28.00;26.30;;;;;;;9.88;100.00;102308.66;5011449;28;20432;-40
2023/05/07 07:03:21;;;;;;;27.43;25.90;;;;;;;9.91;100.00;102303.84;5011971;28;20457;-40
2023/05/07 07:05:52;;;;;;;29.00;27.10;;;;;;;9.89;100.00;102307.63;5010429;28;20457;-41
2023/05/07 07:08:21;;;;;;;29.20;27.33;;;;;;;9.94;100.00;102316.88;5010288;28;20433;-43
2023/05/07 07:10:50;;;;;;;28.37;26.57;;;;;;;10.06;100.00;102312.13;5011960;28;20429;-40
2023/05/07 07:13:17;;;;;;;27.20;25.60;;;;;;;10.15;100.00;102313.91;5011762;28;20457;-41
2023/05/07 07:15:45;;;;;;;27.97;26.20;;;;;;;10.17;100.00;102322.56;5010608;28;20492;-40
2023/05/07 07:18:13;;;;;;;28.10;26.20;;;;;;;10.34;100.00;102328.84;5010955;28;20499;-41
2023/05/07 07:20:41;;;;;;;26.33;24.83;;;;;;;10.38;100.00;102312.38;5009841;28;20433;-43
2023/05/07 07:23:08;;;;;;;26.50;24.80;;;;;;;10.44;100.00;102325.09;5010988;28;20453;-41
2023/05/07 07:25:36;;;;;;;28.17;26.50;;;;;;;10.49;100.00;102314.78;5010804;28;20503;-41
2023/05/07 07:28:06;;;;;;;28.30;26.63;;;;;;;10.52;100.00;102317.13;5003233;28;20433;-41
2023/05/07 07:30:34;;;;;;;28.00;26.10;;;;;;;10.63;100.00;102308.03;5011722;28;20436;-40
2023/05/07 07:33:02;;;;;;;26.93;25.13;;;;;;;10.72;100.00;102304.38;5010386;28;20453;-42
2023/05/07 07:35:31;;;;;;;27.10;25.23;;;;;;;10.81;100.00;102314.09;5010147;28;20488;-41
2023/05/07 07:37:59;;;;;;;27.00;25.20;;;;;;;11.01;100.00;102312.88;5013548;28;20455;-45
2023/05/07 07:40:27;;;;;;;27.00;25.37;;;;;;;11.12;100.00;102314.38;5009946;28;20517;-41
2023/05/07 07:42:55;;;;;;;27.43;25.63;;;;;;;11.29;100.00;102312.63;5008350;28;21028;-42
2023/05/07 07:45:24;;;;;;;25.47;24.17;;;;;;;11.42;100.00;102324.50;5019326;28;20441;-42
2023/05/07 07:47:51;;;;;;;26.60;25.03;;;;;;;11.50;100.00;102316.50;5019309;28;20504;-43
2023/05/07 07:50:19;;;;;;;25.70;24.20;;;;;;;11.64;100.00;102318.53;5019005;28;20516;-42
2023/05/07 07:53:07;;;;;;;25.37;24.07;;;;;;;11.72;100.00;102320.41;5019361;28;20453;-43
2023/05/07 07:55:39;;;;;;;26.23;24.80;;;;;;;11.96;100.00;102311.56;5018366;28;20480;-41
2023/05/07 07:58:07;;;;;;;25.67;24.27;;;;;;;11.88;100.00;102311.56;5020287;28;20429;-42
2023/05/07 08:00:37;;;;;;;26.47;24.73;;;;;;;11.98;100.00;102298.84;5020702;28;20441;-42
2023/05/07 08:03:06;;;;;;;25.10;23.80;;;;;;;11.79;100.00;102310.72;5020575;28;20517;-45
2023/05/07 08:05:34;;;;;;;25.07;23.77;;;;;;;11.86;100.00;102309.03;5019393;28;20461;-40
2023/05/07 08:08:02;;;;;;;26.30;24.90;;;;;;;12.17;100.00;102311.88;5019758;28;20440;-41
2023/05/07 08:10:33;;;;;;;25.10;23.67;;;;;;;12.18;100.00;102309.00;5021114;28;20440;-43
2023/05/07 08:13:03;;;;;;;25.60;24.30;;;;;;;12.46;100.00;102298.78;5019886;28;20453;-41
2023/05/07 08:15:32;;;;;;;24.60;23.20;;;;;;;12.80;100.00;102306.53;5019535;28;20457;-43
2023/05/07 08:18:02;;;;;;;24.63;23.30;;;;;;;12.70;100.00;102301.38;5019027;28;20429;-43
2023/05/07 08:20:30;;;;;;;26.30;24.80;;;;;;;12.86;100.00;102291.63;5019241;28;20504;-41
2023/05/07 08:22:58;;;;;;;24.83;23.53;;;;;;;13.20;100.00;102294.84;5000518;28;20482;-40
2023/05/07 08:25:26;;;;;;;26.20;24.77;;;;;;;13.45;100.00;102298.19;5003950;28;20453;-42
2023/05/07 08:27:53;;;;;;;24.90;23.33;;;;;;;13.76;100.00;102294.47;5018527;28;20958;-40
2023/05/07 08:30:22;;;;;;;25.00;23.70;;;;;;;13.68;100.00;102288.31;5017962;28;20437;-46
2023/05/07 08:32:50;;;;;;;24.90;23.60;;;;;;;13.65;100.00;102281.44;5017403;28;20480;-41
2023/05/07 08:35:19;;;;;;;23.43;22.13;;;;;;;14.15;100.00;102296.13;5017906;28;20429;-41
2023/05/07 08:37:46;;;;;;;24.97;23.57;;;;;;;13.75;100.00;102298.16;5019210;28;20496;-42
2023/05/07 08:40:14;;;;;;;24.67;23.30;;;;;;;13.88;100.00;102294.88;5019000;28;20473;-41
2023/05/07 08:42:44;;;;;;;24.70;23.40;;;;;;;14.04;100.00;102304.59;5016995;28;20441;-41
2023/05/07 08:45:12;;;;;;;23.60;22.47;;;;;;;14.14;100.00;102292.59;5016705;28;20472;-44
2023/05/07 08:47:45;;;;;;;24.20;23.00;;;;;;;14.33;100.00;102285.91;5017908;28;20858;-44
2023/05/07 08:50:13;;;;;;;24.17;22.97;;;;;;;14.44;100.00;102303.41;5016227;28;20500;-42
2023/05/07 08:52:42;;;;;;;23.70;22.50;;;;;;;14.50;100.00;102302.66;5017095;28;20444;-40
2023/05/07 08:55:11;;;;;;;23.93;22.83;;;;;;;14.65;100.00;102298.97;5017207;28;20424;-41
2023/05/07 08:57:40;;;;;;;24.03;22.93;;;;;;;14.77;100.00;102299.34;5017184;28;20459;-43
2023/05/07 09:00:09;;;;;;;23.83;22.73;;;;;;;14.66;100.00;102297.97;5015734;28;20476;-43
2023/05/07 09:02:37;;;;;;;23.43;22.23;;;;;;;14.86;100.00;102295.53;5014058;28;20441;-42
2023/05/07 09:05:06;;;;;;;24.37;23.13;;;;;;;15.08;100.00;102291.06;5016377;28;20858;-44
2023/05/07 09:07:34;;;;;;;23.60;22.50;;;;;;;15.04;100.00;102298.66;5015251;28;20520;-45
2023/05/07 09:10:05;;;;;;;23.40;22.43;;;;;;;14.82;100.00;102304.97;5016186;28;20440;-42
2023/05/07 09:12:34;;;;;;;24.83;22.93;;;;;;;15.10;100.00;102307.81;5015191;28;20429;-40
2023/05/07 09:15:04;;;;;;;24.57;23.27;;;;;;;15.22;100.00;102304.47;5014934;28;20469;-44
2023/05/07 09:17:32;;;;;;;24.60;23.40;;;;;;;14.93;100.00;102307.22;5015990;28;20439;-41
2023/05/07 09:20:04;;;;;;;22.97;21.97;;;;;;;15.12;100.00;102306.59;5016597;28;20472;-43
2023/05/07 09:22:33;;;;;;;23.20;22.20;;;;;;;15.30;100.00;102311.56;5015645;28;20530;-43
2023/05/07 09:25:01;;;;;;;24.30;23.03;;;;;;;15.47;100.00;102302.31;5016620;28;20429;-41
2023/05/07 09:27:32;;;;;;;23.37;22.23;;;;;;;15.55;100.00;102312.09;5014962;28;21142;-42
2023/05/07 09:30:00;;;;;;;24.20;22.80;;;;;;;15.55;100.00;102312.09;5015204;28;20428;-42
2023/05/07 09:32:28;;;;;;;24.33;23.13;;;;;;;15.09;100.00;102324.94;5016489;28;20452;-45
2023/05/07 09:34:55;;;;;;;24.60;23.30;;;;;;;14.73;100.00;102327.56;5015930;28;21003;-46
2023/05/07 09:37:23;;;;;;;23.90;22.87;;;;;;;14.69;100.00;102302.97;5012754;28;20479;-46
2023/05/07 09:39:51;;;;;;;23.53;22.43;;;;;;;14.66;100.00;102321.28;5016411;28;20554;-40
2023/05/07 09:42:24;;;;;;;23.70;22.60;;;;;;;15.03;100.00;102317.63;5016023;28;20437;-46
2023/05/07 09:44:53;;;;;;;23.47;22.40;;;;;;;15.30;100.00;102311.56;5015525;28;20465;-40
2023/05/07 09:47:21;;;;;;;23.23;22.13;;;;;;;15.16;100.00;102296.31;5007410;28;20475;-46
2023/05/07 09:49:50;;;;;;;23.53;22.43;;;;;;;15.20;100.00;102301.13;5014139;28;20425;-42
2023/05/07 09:52:18;;;;;;;23.80;22.67;;;;;;;15.20;100.00;102305.69;5014040;28;20429;-45
2023/05/07 09:54:49;;;;;;;23.50;22.40;;;;;;;15.37;100.00;102315.19;5014128;28;20492;-41
2023/05/07 09:57:20;;;;;;;23.60;22.40;;;;;;;15.09;100.00;102309.66;5014842;28;20501;-41
2023/05/07 09:59:50;;;;;;;24.03;22.83;;;;;;;15.02;100.00;102318.69;5015494;28;20464;-40
2023/05/07 10:02:20;;;;;;;24.03;22.90;;;;;;;15.18;100.00;102315.75;5015077;28;20465;-44
2023/05/07 10:04:49;;;;;;;23.27;21.97;;;;;;;15.14;100.00;102309.13;5015060;28;20472;-45
2023/05/07 10:07:17;;;;;;;22.90;21.87;;;;;;;15.62;100.00;102300.34;5015540;28;20465;-43
2023/05/07 10:09:46;;;;;;;22.20;21.20;;;;;;;15.72;100.00;102298.19;5015718;28;20437;-45
2023/05/07 10:12:16;;;;;;;23.00;21.90;;;;;;;15.95;100.00;102312.25;5016542;28;20444;-48
2023/05/07 10:14:44;;;;;;;21.60;20.70;;;;;;;16.22;100.00;102302.53;5018115;28;20453;-43
2023/05/07 10:17:13;;;;;;;21.47;20.57;;;;;;;16.01;100.00;102287.28;5051511;22;20455;-41
2023/05/07 10:19:45;;;;;;;22.90;21.80;;;;;;;15.99;100.00;102304.63;5037725;28;20424;-47
2023/05/07 10:22:14;;;;;;;21.30;20.40;;;;;;;16.05;100.00;102312.78;5037676;28;20431;-44
2023/05/07 10:24:45;;;;;;;22.30;21.23;;;;;;;15.73;100.00;102309.78;5037776;28;20800;-42
2023/05/07 10:27:16;;;;;;;21.53;20.53;;;;;;;15.95;100.00;102309.56;5023807;28;20457;-47
2023/05/07 10:29:54;;;;;;;22.83;21.80;;;;;;;15.50;100.00;102310.78;5018623;28;20454;-48
2023/05/07 10:32:36;;;;;;;23.50;22.30;;;;;;;15.28;100.00;102311.78;5017858;28;20437;-44
2023/05/07 10:35:11;;;;;;;23.90;22.60;;;;;;;14.96;100.00;102306.84;5016672;28;20435;-46
2023/05/07 10:37:40;;;;;;;22.60;21.70;;;;;;;15.26;100.00;102305.72;5017369;28;20492;-45
2023/05/07 10:40:10;;;;;;;23.30;22.37;;;;;;;15.13;100.00;102308.28;5017462;28;20476;-45
2023/05/07 10:42:38;;;;;;;22.17;21.17;;;;;;;15.11;100.00;102309.50;5018124;28;20441;-45
2023/05/07 10:45:16;;;;;;;23.10;21.90;;;;;;;15.47;100.00;102313.06;5017003;28;20815;-42
2023/05/07 10:48:10;;;;;;;22.53;21.50;;;;;;;15.82;100.00;102311.31;5017753;28;21004;-47
2023/05/07 10:51:21;;;;;;;21.77;20.67;;;;;;;15.90;100.00;102312.03;5017388;28;20559;-43
2023/05/07 10:53:48;;;;;;;22.87;21.87;;;;;;;16.06;100.00;102319.00;5016554;28;20437;-44
2023/05/07 10:56:29;;;;;;;22.40;21.50;;;;;;;16.28;100.00;102306.31;5016593;28;20495;-43
2023/05/07 10:59:40;;;;;;;20.80;19.97;;;;;;;16.63;98.85;102312.59;5018187;28;20424;-43
2023/05/07 11:02:09;;;;;;;21.87;20.97;;;;;;;16.63;100.00;102316.13;5015920;28;20476;-44
2023/05/07 11:04:38;;;;;;;22.83;21.63;;;;;;;16.54;100.00;102328.09;5016949;28;20417;-43
2023/05/07 11:07:26;;;;;;;22.10;20.80;;;;;;;16.48;100.00;102296.53;5016590;28;20746;-45
2023/05/07 11:10:01;;;;;;;20.43;19.53;;;;;;;16.40;97.34;102308.25;5016538;28;20436;-44
2023/05/07 11:12:51;;;;;;;21.37;20.33;;;;;;;16.36;98.58;102304.31;5016619;28;20495;-41
2023/05/07 11:15:41;;;;;;;21.57;20.47;;;;;;;16.78;97.12;102300.66;5016741;28;20490;-44